Time;durP1;ratioP1;P1;durP2;ratioP2;P2;SDS_P1;SDS_P2;PMS_P1;PMS_P2;Temp;Humidity;BMP_temperature;BMP_pressure;BME280_temperature;BME280_humidity;BME280_pressure;Samples;Min_cycle;Max_cycle;Signal;HPM_P1;HPM_P2
2023/04/08 00:01:46;;;;;;;13.85;9.43;;;4.20;99.90;;;;;;5114429;28;20047;-63
2023/04/08 00:04:13;;;;;;;14.32;9.95;;;4.10;99.90;;;;;;5114868;28;20043;-63
2023/04/08 00:06:38;;;;;;;17.05;9.55;;;4.10;99.90;;;;;;5114926;28;20043;-63
2023/04/08 00:09:04;;;;;;;14.82;9.65;;;4.00;99.90;;;;;;5115034;27;20388;-63
2023/04/08 00:11:30;;;;;;;14.73;9.48;;;4.00;99.90;;;;;;5104897;28;20039;-63
2023/04/08 00:13:55;;;;;;;17.35;10.02;;;4.00;99.90;;;;;;5128991;27;20122;-64
2023/04/08 00:16:21;;;;;;;17.67;9.48;;;3.90;99.90;;;;;;5118585;27;20397;-63
2023/04/08 00:18:48;;;;;;;15.38;9.88;;;3.90;99.90;;;;;;5117803;27;20039;-63
2023/04/08 00:21:16;;;;;;;15.10;9.82;;;3.80;99.90;;;;;;5110362;28;20118;-63
2023/04/08 00:23:42;;;;;;;14.63;9.38;;;3.90;99.90;;;;;;5119170;27;20035;-62
2023/04/08 00:26:08;;;;;;;16.67;9.52;;;3.80;99.90;;;;;;5118138;27;20125;-63
2023/04/08 00:28:33;;;;;;;17.23;10.55;;;3.70;99.90;;;;;;5115346;27;20047;-63
2023/04/08 00:30:59;;;;;;;15.98;9.52;;;3.70;99.90;;;;;;5110035;27;20035;-63
2023/04/08 00:33:25;;;;;;;16.48;9.60;;;3.80;99.90;;;;;;5114862;27;20130;-63
2023/04/08 00:35:51;;;;;;;17.40;9.68;;;3.80;99.90;;;;;;5120032;27;20068;-62
2023/04/08 00:38:16;;;;;;;16.08;9.88;;;3.80;99.90;;;;;;5133785;27;20054;-63
2023/04/08 00:40:42;;;;;;;16.13;9.80;;;3.70;99.90;;;;;;5104611;28;20042;-63
2023/04/08 00:43:07;;;;;;;16.65;9.68;;;3.70;99.90;;;;;;5107082;27;20123;-63
2023/04/08 00:45:33;;;;;;;15.15;9.95;;;3.70;99.90;;;;;;5109946;27;20084;-63
2023/04/08 00:47:58;;;;;;;17.88;9.85;;;3.60;99.90;;;;;;5104647;27;20077;-63
2023/04/08 00:50:24;;;;;;;19.58;10.10;;;3.60;99.90;;;;;;5105607;27;20051;-63
2023/04/08 00:52:56;;;;;;;14.65;9.38;;;3.60;99.90;;;;;;5129841;27;20039;-63
2023/04/08 00:55:21;;;;;;;17.13;9.53;;;3.60;99.90;;;;;;5106352;27;20126;-63
2023/04/08 00:57:47;;;;;;;15.07;9.68;;;3.50;99.90;;;;;;5110948;27;20117;-63
2023/04/08 01:00:14;;;;;;;17.58;9.77;;;3.50;99.90;;;;;;5108038;27;20892;-64
2023/04/08 01:03:01;;;;;;;16.90;9.55;;;3.50;99.90;;;;;;5124676;27;20069;-63
2023/04/08 01:05:37;;;;;;;14.73;9.75;;;3.40;99.90;;;;;;5112195;27;20034;-63
2023/04/08 01:08:05;;;;;;;19.50;9.35;;;3.50;99.90;;;;;;5105560;27;20066;-64
2023/04/08 01:10:33;;;;;;;17.23;9.70;;;3.40;99.90;;;;;;5105563;27;20130;-63
2023/04/08 01:13:08;;;;;;;15.80;9.35;;;3.40;99.90;;;;;;5107769;27;20114;-63
2023/04/08 01:15:37;;;;;;;18.40;9.77;;;3.40;99.90;;;;;;5110205;27;20546;-63
2023/04/08 01:18:07;;;;;;;16.23;10.00;;;3.40;99.90;;;;;;5111328;27;20082;-63
2023/04/08 01:20:33;;;;;;;16.38;10.10;;;3.40;99.90;;;;;;5105340;28;20043;-63
2023/04/08 01:23:12;;;;;;;18.83;10.18;;;3.40;99.90;;;;;;5104229;27;20126;-63
2023/04/08 01:25:38;;;;;;;16.25;9.55;;;3.30;99.90;;;;;;5107718;27;20049;-63
2023/04/08 01:28:11;;;;;;;16.58;9.35;;;3.30;99.90;;;;;;5106643;27;20482;-63
2023/04/08 01:30:41;;;;;;;20.73;9.98;;;3.30;99.90;;;;;;5108970;27;20050;-63
2023/04/08 01:33:10;;;;;;;16.08;9.35;;;3.30;99.90;;;;;;5107500;27;20158;-63
2023/04/08 01:35:36;;;;;;;16.52;9.82;;;3.20;99.90;;;;;;5110779;27;20058;-63
2023/04/08 01:38:04;;;;;;;14.50;9.40;;;3.20;99.90;;;;;;5126686;27;20478;-63
2023/04/08 01:40:31;;;;;;;14.70;9.20;;;3.20;99.90;;;;;;5129525;27;20126;-63
2023/04/08 01:42:59;;;;;;;15.07;8.98;;;3.20;99.90;;;;;;5128814;27;20043;-63
2023/04/08 01:45:26;;;;;;;16.52;9.93;;;3.20;99.90;;;;;;5132849;27;20074;-63
2023/04/08 01:47:52;;;;;;;17.65;10.15;;;3.10;99.90;;;;;;5129635;27;20118;-63
2023/04/08 01:50:19;;;;;;;16.80;9.85;;;3.10;99.90;;;;;;5112356;27;20382;-63
2023/04/08 01:52:48;;;;;;;15.23;10.00;;;3.10;99.90;;;;;;5106861;27;20060;-64
2023/04/08 01:55:14;;;;;;;16.10;9.95;;;3.10;99.90;;;;;;5110286;27;20039;-63
2023/04/08 01:57:45;;;;;;;17.67;10.38;;;3.00;99.90;;;;;;5105966;27;20040;-64
2023/04/08 02:00:13;;;;;;;17.90;10.48;;;3.00;99.90;;;;;;5110788;27;20050;-63
2023/04/08 02:02:41;;;;;;;20.58;10.30;;;3.00;99.90;;;;;;5110867;27;20075;-64
2023/04/08 02:05:07;;;;;;;17.73;10.00;;;3.00;99.90;;;;;;5108705;27;20406;-63
2023/04/08 02:07:33;;;;;;;16.25;10.20;;;2.90;99.90;;;;;;5110420;27;20035;-63
2023/04/08 02:09:59;;;;;;;17.75;10.13;;;2.90;99.90;;;;;;5111728;27;20031;-63
2023/04/08 02:12:25;;;;;;;17.58;10.55;;;2.90;99.90;;;;;;5110080;27;20047;-63
2023/04/08 02:14:52;;;;;;;18.70;10.50;;;2.80;99.90;;;;;;5108527;27;20478;-63
2023/04/08 02:17:30;;;;;;;18.45;10.25;;;2.80;99.90;;;;;;5128502;27;20108;-63
2023/04/08 02:20:04;;;;;;;17.77;10.38;;;2.70;99.90;;;;;;5110751;27;20119;-63
2023/04/08 02:22:46;;;;;;;19.50;10.93;;;2.80;99.90;;;;;;5103255;27;20536;-63
2023/04/08 02:25:16;;;;;;;22.23;10.50;;;2.70;99.90;;;;;;5110725;27;20035;-64
2023/04/08 02:27:44;;;;;;;19.35;11.27;;;2.70;99.90;;;;;;5110117;27;20031;-63
2023/04/08 02:30:12;;;;;;;19.92;10.68;;;2.60;99.90;;;;;;5111981;27;20092;-63
2023/04/08 02:32:38;;;;;;;19.92;11.40;;;2.50;99.90;;;;;;5105439;27;20378;-63
2023/04/08 02:35:05;;;;;;;20.67;11.00;;;2.50;99.90;;;;;;5106367;27;20100;-63
2023/04/08 02:37:31;;;;;;;18.45;10.68;;;2.50;99.90;;;;;;5123775;27;20030;-63
2023/04/08 02:39:58;;;;;;;18.27;11.30;;;2.50;99.90;;;;;;5112477;27;20544;-63
2023/04/08 02:42:24;;;;;;;19.65;11.07;;;2.50;99.90;;;;;;5110616;27;20044;-63
2023/04/08 02:44:50;;;;;;;20.85;11.77;;;2.50;99.90;;;;;;5102524;27;21902;-63
2023/04/08 02:47:16;;;;;;;20.55;11.50;;;2.40;99.90;;;;;;5094237;27;20394;-63
2023/04/08 02:49:41;;;;;;;20.33;11.75;;;2.40;99.90;;;;;;5108555;27;20054;-63
2023/04/08 02:52:07;;;;;;;21.38;11.55;;;2.40;99.90;;;;;;5110960;27;20050;-64
2023/04/08 02:54:32;;;;;;;18.90;11.30;;;2.40;99.90;;;;;;5110016;27;20501;-64
2023/04/08 02:56:58;;;;;;;21.45;11.35;;;2.40;99.90;;;;;;5127612;27;20039;-63
2023/04/08 02:59:23;;;;;;;20.70;11.57;;;2.30;99.90;;;;;;5109053;27;20083;-63
2023/04/08 03:01:50;;;;;;;18.52;11.52;;;2.30;99.90;;;;;;5128730;27;20084;-64
2023/04/08 03:04:15;;;;;;;20.67;11.88;;;2.30;99.90;;;;;;5108146;27;20091;-63
2023/04/08 03:06:41;;;;;;;21.00;11.73;;;2.20;99.90;;;;;;5108760;27;20038;-64
2023/04/08 03:09:06;;;;;;;22.92;11.75;;;2.20;99.90;;;;;;5106331;27;20038;-63
2023/04/08 03:11:32;;;;;;;20.27;11.48;;;2.20;99.90;;;;;;5109990;27;20042;-63
2023/04/08 03:13:58;;;;;;;20.77;11.05;;;2.20;99.90;;;;;;5104923;27;20039;-63
2023/04/08 03:16:24;;;;;;;22.80;12.77;;;2.30;99.90;;;;;;5108879;27;20043;-63
2023/04/08 03:18:50;;;;;;;18.95;11.88;;;2.30;99.90;;;;;;5105494;27;20480;-63
2023/04/08 03:21:16;;;;;;;22.17;11.73;;;2.30;99.90;;;;;;5125608;27;20397;-63
2023/04/08 03:23:41;;;;;;;21.52;11.90;;;2.20;99.90;;;;;;5103852;27;20043;-63
2023/04/08 03:26:07;;;;;;;23.83;11.57;;;2.20;99.90;;;;;;5106140;27;20046;-64
2023/04/08 03:28:34;;;;;;;23.83;11.68;;;2.20;99.90;;;;;;5109599;27;20082;-64
2023/04/08 03:31:00;;;;;;;20.02;11.85;;;2.10;99.90;;;;;;5104004;28;20481;-63
2023/04/08 03:33:25;;;;;;;22.65;12.88;;;2.10;99.90;;;;;;5102475;27;20040;-63
2023/04/08 03:35:53;;;;;;;23.60;11.98;;;2.10;99.90;;;;;;5107688;28;20070;-64
2023/04/08 03:38:18;;;;;;;21.70;12.60;;;2.10;99.90;;;;;;5106072;27;20043;-63
2023/04/08 03:40:44;;;;;;;24.40;13.23;;;2.10;99.90;;;;;;5126046;27;20030;-64
2023/04/08 03:43:11;;;;;;;22.70;12.27;;;2.10;99.90;;;;;;5106856;27;20047;-63
2023/04/08 03:45:36;;;;;;;26.10;13.18;;;2.10;99.90;;;;;;5108323;27;20087;-63
2023/04/08 03:48:02;;;;;;;23.38;12.85;;;2.10;99.90;;;;;;5106734;27;20537;-63
2023/04/08 03:50:28;;;;;;;22.13;12.70;;;2.00;99.90;;;;;;5109237;27;20131;-64
2023/04/08 03:52:53;;;;;;;24.75;12.70;;;2.00;99.90;;;;;;5108802;27;20055;-64
2023/04/08 03:55:19;;;;;;;21.77;11.75;;;2.00;99.90;;;;;;5106687;28;20070;-64
2023/04/08 03:57:45;;;;;;;22.50;12.45;;;2.10;99.90;;;;;;5108271;27;20035;-63
2023/04/08 04:00:11;;;;;;;22.88;12.68;;;2.20;99.90;;;;;;5104336;28;20406;-64
2023/04/08 04:02:36;;;;;;;25.05;13.15;;;2.10;99.90;;;;;;5122348;27;20130;-63
2023/04/08 04:05:02;;;;;;;26.52;13.48;;;2.10;99.90;;;;;;5108926;27;20157;-63
2023/04/08 04:07:27;;;;;;;27.45;13.25;;;2.00;99.90;;;;;;5109014;28;20065;-63
2023/04/08 04:09:55;;;;;;;25.75;13.40;;;1.90;99.90;;;;;;5111795;28;20043;-63
2023/04/08 04:12:21;;;;;;;26.10;14.20;;;1.90;99.90;;;;;;5106699;28;20506;-63
2023/04/08 04:14:47;;;;;;;24.67;13.55;;;1.80;99.90;;;;;;5109134;27;20043;-63
2023/04/08 04:17:12;;;;;;;24.10;13.70;;;1.80;99.90;;;;;;5108069;27;20039;-63
2023/04/08 04:19:38;;;;;;;27.42;14.40;;;1.70;99.90;;;;;;5108850;27;20107;-64
2023/04/08 04:22:03;;;;;;;27.42;14.50;;;1.70;99.90;;;;;;5108718;28;20039;-64
2023/04/08 04:24:29;;;;;;;25.00;14.30;;;1.60;99.90;;;;;;5108411;28;20039;-63
2023/04/08 04:26:54;;;;;;;29.55;15.20;;;1.60;99.90;;;;;;5108334;28;20474;-63
2023/04/08 04:29:20;;;;;;;28.98;15.57;;;1.60;99.90;;;;;;5123248;27;20035;-64
2023/04/08 04:31:45;;;;;;;26.17;14.38;;;1.60;99.90;;;;;;5108330;28;20054;-63
2023/04/08 04:34:11;;;;;;;29.45;15.18;;;1.60;99.90;;;;;;5109750;28;20051;-63
2023/04/08 04:36:36;;;;;;;29.08;15.32;;;1.60;99.90;;;;;;5105892;27;20435;-63
2023/04/08 04:39:02;;;;;;;27.73;15.20;;;1.60;99.90;;;;;;5127257;27;20485;-63
2023/04/08 04:41:28;;;;;;;29.63;15.48;;;1.60;99.90;;;;;;5109721;27;20043;-64
2023/04/08 04:43:53;;;;;;;26.77;15.25;;;1.50;99.90;;;;;;5107620;28;20043;-63
2023/04/08 04:46:19;;;;;;;28.55;15.00;;;1.50;99.90;;;;;;5121496;27;20031;-64
2023/04/08 04:48:44;;;;;;;32.63;16.08;;;1.50;99.90;;;;;;5108465;28;20071;-63
2023/04/08 04:51:10;;;;;;;28.65;15.68;;;1.50;99.90;;;;;;5107929;27;20153;-64
2023/04/08 04:53:35;;;;;;;29.45;15.90;;;1.50;99.90;;;;;;5108983;28;20390;-64
2023/04/08 04:56:01;;;;;;;28.98;15.70;;;1.50;99.90;;;;;;5107621;27;20031;-64
2023/04/08 04:58:27;;;;;;;30.33;17.05;;;1.50;99.90;;;;;;5108510;27;20083;-64
2023/04/08 05:00:53;;;;;;;30.50;16.23;;;1.60;99.90;;;;;;5110309;27;20048;-64
2023/04/08 05:03:18;;;;;;;33.53;16.65;;;1.60;99.90;;;;;;5111176;27;20051;-64
2023/04/08 05:05:44;;;;;;;32.63;16.83;;;1.60;99.90;;;;;;5112758;27;20378;-64
2023/04/08 05:08:10;;;;;;;33.38;17.02;;;1.60;99.90;;;;;;5110988;27;20043;-64
2023/04/08 05:10:35;;;;;;;33.13;17.20;;;1.60;99.90;;;;;;5111042;27;20077;-64
2023/04/08 05:13:01;;;;;;;33.05;17.23;;;1.70;99.90;;;;;;5108581;27;20038;-64
2023/04/08 05:15:26;;;;;;;31.80;17.20;;;1.60;99.90;;;;;;5112641;27;20401;-64
2023/04/08 05:17:52;;;;;;;32.17;17.13;;;1.60;99.90;;;;;;5108513;27;20047;-64
2023/04/08 05:20:17;;;;;;;35.38;17.23;;;1.70;99.90;;;;;;5111048;27;20511;-64
2023/04/08 05:22:44;;;;;;;36.10;18.27;;;1.80;99.90;;;;;;5110008;27;20047;-65
2023/04/08 05:25:10;;;;;;;39.25;18.35;;;1.80;99.90;;;;;;5128671;27;20047;-65
2023/04/08 05:27:36;;;;;;;36.25;17.58;;;1.80;99.90;;;;;;5130209;27;20035;-64
2023/04/08 05:30:01;;;;;;;35.50;17.55;;;1.90;99.90;;;;;;5110601;27;20351;-64
2023/04/08 05:32:28;;;;;;;35.95;18.80;;;2.00;99.90;;;;;;5106279;27;20051;-65
2023/04/08 05:34:54;;;;;;;36.78;17.60;;;2.10;99.90;;;;;;5104954;27;20180;-65
2023/04/08 05:37:19;;;;;;;35.97;18.13;;;2.20;99.90;;;;;;5102858;27;20035;-64
2023/04/08 05:39:46;;;;;;;36.45;19.00;;;2.20;99.90;;;;;;5101783;27;20027;-64
2023/04/08 05:42:12;;;;;;;36.88;18.40;;;2.30;99.90;;;;;;5127284;27;20773;-65
2023/04/08 05:44:40;;;;;;;38.08;18.27;;;2.40;99.90;;;;;;5107350;27;20410;-64
2023/04/08 05:47:05;;;;;;;37.25;17.58;;;2.40;99.90;;;;;;5112140;27;20043;-64
2023/04/08 05:49:32;;;;;;;36.30;17.85;;;2.40;99.90;;;;;;5101649;28;20062;-64
2023/04/08 05:51:57;;;;;;;35.25;17.95;;;2.50;99.90;;;;;;5114448;27;20062;-63
2023/04/08 05:54:24;;;;;;;35.78;18.15;;;2.60;99.90;;;;;;5114998;27;20043;-64
2023/04/08 05:56:49;;;;;;;34.40;17.80;;;2.60;99.90;;;;;;5114014;27;20284;-64
2023/04/08 05:59:15;;;;;;;31.80;17.05;;;2.70;99.90;;;;;;5113445;27;20046;-64
2023/04/08 06:01:40;;;;;;;33.53;16.80;;;2.70;99.90;;;;;;5105262;27;20159;-64
2023/04/08 06:04:06;;;;;;;35.97;17.60;;;2.80;99.90;;;;;;5106930;27;20494;-64
2023/04/08 06:06:31;;;;;;;34.85;17.65;;;2.90;99.90;;;;;;5118800;27;20108;-64
2023/04/08 06:08:57;;;;;;;35.78;19.20;;;3.10;99.90;;;;;;5104264;27;20038;-65
2023/04/08 06:11:23;;;;;;;39.85;20.05;;;3.20;99.90;;;;;;5127106;27;20236;-65
2023/04/08 06:13:48;;;;;;;41.17;20.05;;;3.40;99.90;;;;;;5103514;27;20131;-64
2023/04/08 06:16:16;;;;;;;42.78;21.35;;;3.60;99.90;;;;;;5091833;27;20456;-64
2023/04/08 06:18:42;;;;;;;35.85;19.40;;;3.80;99.90;;;;;;5110726;27;20101;-63
2023/04/08 06:21:08;;;;;;;39.72;20.13;;;3.90;99.90;;;;;;5108315;27;20134;-64
2023/04/08 06:23:34;;;;;;;39.70;20.33;;;4.00;99.90;;;;;;5101157;27;20043;-64
2023/04/08 06:25:59;;;;;;;38.92;19.73;;;4.00;99.90;;;;;;5106336;27;20058;-65
2023/04/08 06:28:25;;;;;;;43.00;20.38;;;4.00;99.90;;;;;;5106018;28;20125;-64
2023/04/08 06:30:50;;;;;;;35.60;19.30;;;4.00;99.90;;;;;;5103795;27;20826;-65
2023/04/08 06:33:16;;;;;;;39.92;19.38;;;4.00;99.90;;;;;;5109025;27;20525;-64
2023/04/08 06:35:41;;;;;;;40.08;20.67;;;4.10;99.90;;;;;;5126308;27;20429;-65
2023/04/08 06:38:07;;;;;;;39.90;20.73;;;4.10;99.90;;;;;;5108765;27;20450;-64
2023/04/08 06:40:32;;;;;;;43.65;21.42;;;4.20;99.90;;;;;;5124939;27;20031;-64
2023/04/08 06:42:58;;;;;;;38.50;20.02;;;4.30;99.90;;;;;;5105519;27;20043;-64
2023/04/08 06:45:23;;;;;;;42.83;20.40;;;4.40;99.90;;;;;;5102771;27;20039;-63
2023/04/08 06:47:49;;;;;;;41.30;20.45;;;4.50;99.90;;;;;;5106089;27;20070;-64
2023/04/08 06:50:15;;;;;;;42.05;21.73;;;4.70;99.90;;;;;;5107396;27;20039;-65
2023/04/08 06:52:40;;;;;;;44.65;22.05;;;4.70;99.90;;;;;;5107737;27;20065;-64
2023/04/08 06:55:06;;;;;;;45.28;21.48;;;4.90;99.90;;;;;;5108170;27;20071;-64
2023/04/08 06:57:32;;;;;;;44.03;21.80;;;5.00;99.90;;;;;;5106903;27;20039;-63
2023/04/08 06:59:59;;;;;;;47.20;22.35;;;5.00;99.90;;;;;;5107204;27;20050;-64
2023/04/08 07:02:25;;;;;;;41.53;20.77;;;5.10;99.90;;;;;;5104650;27;20059;-64
2023/04/08 07:04:50;;;;;;;40.45;21.55;;;5.20;99.90;;;;;;5100395;27;20387;-64
2023/04/08 07:07:16;;;;;;;41.25;21.25;;;5.40;99.90;;;;;;5106215;27;20385;-64
2023/04/08 07:09:44;;;;;;;43.55;20.88;;;5.40;99.90;;;;;;5105177;27;20505;-64
2023/04/08 07:12:10;;;;;;;43.75;22.10;;;5.50;99.90;;;;;;5102204;27;20051;-64
2023/04/08 07:14:36;;;;;;;41.55;21.23;;;5.60;99.90;;;;;;5101228;27;20917;-64
2023/04/08 07:17:01;;;;;;;42.72;20.50;;;5.60;99.90;;;;;;5108417;27;20055;-64
2023/04/08 07:19:27;;;;;;;42.90;21.27;;;5.70;99.90;;;;;;5103516;27;20040;-64
2023/04/08 07:21:53;;;;;;;42.80;21.20;;;5.80;99.90;;;;;;5107609;27;20039;-64
2023/04/08 07:24:18;;;;;;;45.95;22.42;;;5.80;99.90;;;;;;5101998;27;20047;-64
2023/04/08 07:26:44;;;;;;;40.78;20.42;;;5.90;99.90;;;;;;5122980;27;20027;-65
2023/04/08 07:29:10;;;;;;;44.17;21.20;;;5.90;99.90;;;;;;5107475;27;20160;-64
2023/04/08 07:31:35;;;;;;;40.70;21.80;;;6.00;99.90;;;;;;5116484;27;20035;-64
2023/04/08 07:34:01;;;;;;;40.08;21.85;;;6.00;99.90;;;;;;5103907;27;20047;-65
2023/04/08 07:36:27;;;;;;;42.60;21.05;;;6.10;99.90;;;;;;5105428;27;20046;-64
2023/04/08 07:38:53;;;;;;;41.28;19.83;;;6.20;99.90;;;;;;5109108;27;20042;-64
2023/04/08 07:41:20;;;;;;;41.55;22.10;;;6.30;99.90;;;;;;5102832;27;20486;-64
2023/04/08 07:43:45;;;;;;;39.35;20.90;;;6.30;99.90;;;;;;5104145;27;20248;-65
2023/04/08 07:46:11;;;;;;;38.75;20.20;;;6.40;99.90;;;;;;5103950;28;20114;-64
2023/04/08 07:48:37;;;;;;;43.97;22.52;;;6.50;99.90;;;;;;5108311;27;20035;-65
2023/04/08 07:51:08;;;;;;;45.65;22.65;;;6.60;99.90;;;;;;5112951;27;20039;-65
2023/04/08 07:53:35;;;;;;;41.83;22.42;;;6.60;99.90;;;;;;5124014;27;20039;-64
2023/04/08 07:56:02;;;;;;;45.42;22.65;;;6.70;99.90;;;;;;5102030;28;20035;-64
2023/04/08 07:58:28;;;;;;;41.85;21.38;;;6.80;99.90;;;;;;5088079;27;20039;-65
2023/04/08 08:00:56;;;;;;;40.38;21.83;;;6.90;99.90;;;;;;5104214;28;20667;-64
2023/04/08 08:03:21;;;;;;;40.63;21.58;;;7.00;99.90;;;;;;5104409;28;20054;-64
2023/04/08 08:05:47;;;;;;;40.60;21.65;;;7.10;99.90;;;;;;5103594;28;20043;-65
2023/04/08 08:08:13;;;;;;;39.30;20.27;;;7.20;99.90;;;;;;5123627;27;20413;-65
2023/04/08 08:10:39;;;;;;;41.67;21.63;;;7.40;99.90;;;;;;5102596;28;20086;-65
2023/04/08 08:13:05;;;;;;;40.08;21.95;;;7.50;99.90;;;;;;5104841;28;20035;-64
2023/04/08 08:15:31;;;;;;;38.67;20.65;;;7.70;99.90;;;;;;5106585;27;20035;-64
2023/04/08 08:17:57;;;;;;;42.60;22.88;;;7.90;99.90;;;;;;5105333;27;20100;-65
2023/04/08 08:20:23;;;;;;;41.20;21.08;;;8.20;99.90;;;;;;5105097;28;20047;-65
2023/04/08 08:22:48;;;;;;;30.85;15.43;;;8.30;99.90;;;;;;5107388;28;20077;-64
2023/04/08 08:25:14;;;;;;;36.05;19.42;;;8.40;99.90;;;;;;5103103;28;20046;-64
2023/04/08 08:27:41;;;;;;;36.38;20.58;;;8.50;99.90;;;;;;5106940;28;20118;-64
2023/04/08 08:30:08;;;;;;;31.83;18.88;;;8.60;99.90;;;;;;5112027;27;20040;-64
2023/04/08 08:32:33;;;;;;;34.00;19.13;;;8.70;99.90;;;;;;5114092;27;20039;-63
2023/04/08 08:34:59;;;;;;;32.58;18.83;;;8.80;99.90;;;;;;5112321;27;20092;-64
2023/04/08 08:37:24;;;;;;;35.35;19.30;;;8.90;99.90;;;;;;5130145;27;20077;-64
2023/04/08 08:39:50;;;;;;;32.15;18.30;;;8.90;99.90;;;;;;5108630;27;20035;-64
2023/04/08 08:42:23;;;;;;;30.58;16.95;;;9.00;99.90;;;;;;5111173;27;20110;-64
2023/04/08 08:44:49;;;;;;;27.25;16.17;;;9.20;99.90;;;;;;5127063;27;20044;-64
2023/04/08 08:47:15;;;;;;;28.40;17.13;;;9.20;99.90;;;;;;5104708;27;20072;-65
2023/04/08 08:49:41;;;;;;;26.83;17.02;;;9.20;99.90;;;;;;5104677;27;20035;-64
2023/04/08 08:52:07;;;;;;;30.65;16.85;;;9.20;99.90;;;;;;5108194;27;20047;-68
2023/04/08 08:54:33;;;;;;;24.80;13.25;;;9.20;99.90;;;;;;5091064;27;20417;-68
2023/04/08 09:00:10;;;;;;;28.90;16.45;;;9.20;99.90;;;;;;5105529;27;20047;-64
2023/04/08 09:02:39;;;;;;;27.67;16.67;;;9.10;99.90;;;;;;5107479;27;20054;-64
2023/04/08 09:05:05;;;;;;;26.98;14.70;;;9.10;99.90;;;;;;5097857;27;20502;-69
2023/04/08 09:07:35;;;;;;;28.90;17.50;;;9.30;99.90;;;;;;5118273;27;20035;-64
2023/04/08 09:10:00;;;;;;;24.05;14.07;;;9.50;99.90;;;;;;5118150;27;20110;-64
2023/04/08 09:12:30;;;;;;;26.85;17.08;;;9.60;99.90;;;;;;5106099;27;20130;-65
2023/04/08 09:15:07;;;;;;;28.25;16.17;;;9.70;99.90;;;;;;5126314;27;20031;-64
2023/04/08 09:17:38;;;;;;;28.80;16.77;;;9.80;99.90;;;;;;5114506;27;20047;-64
2023/04/08 09:20:10;;;;;;;21.13;13.23;;;9.80;99.90;;;;;;5108895;27;20509;-67
2023/04/08 09:22:59;;;;;;;26.10;14.48;;;9.80;99.90;;;;;;5111030;27;20043;-66
2023/04/08 09:29:03;;;;;;;27.45;17.23;;;9.70;99.90;;;;;;5111494;27;20050;-66
2023/04/08 09:31:39;;;;;;;27.58;16.65;;;9.70;99.90;;;;;;5118322;27;20069;-66
2023/04/08 09:34:10;;;;;;;26.45;14.45;;;9.70;99.90;;;;;;5118240;27;20081;-65
2023/04/08 09:36:36;;;;;;;26.27;13.75;;;9.80;99.90;;;;;;5107565;27;20162;-65
2023/04/08 09:39:14;;;;;;;28.75;17.45;;;9.90;99.90;;;;;;5097776;28;20462;-67
2023/04/08 09:41:41;;;;;;;31.00;18.77;;;9.90;99.90;;;;;;5095830;28;20077;-65
2023/04/08 09:44:08;;;;;;;23.75;13.50;;;10.00;99.90;;;;;;5108846;27;20027;-71
2023/04/08 09:46:49;;;;;;;25.80;15.80;;;10.00;99.90;;;;;;5106114;27;20035;-71
2023/04/08 09:49:23;;;;;;;28.23;17.77;;;10.00;99.90;;;;;;5101924;28;20127;-65
2023/04/08 09:52:06;;;;;;;25.30;15.73;;;10.00;99.90;;;;;;5104168;27;20043;-66
2023/04/08 09:55:11;;;;;;;24.17;14.07;;;10.10;99.90;;;;;;5117924;27;20042;-66
2023/04/08 09:57:41;;;;;;;28.27;16.92;;;10.10;99.90;;;;;;5132965;27;20406;-66
2023/04/08 10:00:13;;;;;;;26.83;17.75;;;10.10;99.90;;;;;;5109777;27;20050;-65
2023/04/08 10:03:22;;;;;;;26.40;16.98;;;10.20;99.90;;;;;;5108820;27;20172;-67
2023/04/08 10:05:49;;;;;;;25.35;13.70;;;10.30;99.90;;;;;;5124084;27;20054;-66
2023/04/08 10:08:15;;;;;;;23.20;15.43;;;10.60;99.90;;;;;;5116913;27;20062;-67
2023/04/08 10:10:55;;;;;;;25.80;16.40;;;10.60;99.90;;;;;;5115969;27;20043;-66
2023/04/08 10:13:21;;;;;;;23.95;15.63;;;10.60;99.90;;;;;;5114845;27;20075;-66
2023/04/08 10:15:47;;;;;;;25.00;15.75;;;10.60;99.90;;;;;;5112955;27;20396;-68
2023/04/08 10:18:13;;;;;;;21.40;11.20;;;10.70;99.90;;;;;;5115751;27;20079;-72
2023/04/08 10:20:39;;;;;;;25.75;16.98;;;10.80;99.90;;;;;;5110405;27;20039;-67
2023/04/08 10:23:06;;;;;;;24.33;15.73;;;10.80;99.90;;;;;;5121910;27;20103;-65
2023/04/08 10:25:40;;;;;;;25.63;16.77;;;10.90;99.90;;;;;;5124289;27;20107;-65
2023/04/08 10:28:25;;;;;;;24.83;15.73;;;10.90;99.90;;;;;;5117353;27;20035;-66
2023/04/08 10:30:52;;;;;;;24.83;16.50;;;10.80;99.90;;;;;;5114411;27;20035;-66
2023/04/08 10:33:22;;;;;;;23.65;16.40;;;10.90;99.90;;;;;;5109151;27;20057;-66
2023/04/08 10:35:58;;;;;;;24.10;16.23;;;11.00;99.90;;;;;;5108964;28;20478;-64
2023/04/08 10:38:23;;;;;;;22.30;14.65;;;11.10;99.90;;;;;;5110503;27;20091;-67
2023/04/08 10:40:51;;;;;;;25.40;15.27;;;11.20;99.90;;;;;;5104641;27;20423;-68
2023/04/08 10:43:17;;;;;;;22.90;15.55;;;11.30;99.90;;;;;;5106957;27;20501;-65
2023/04/08 10:45:43;;;;;;;22.00;14.05;;;11.30;99.90;;;;;;5094332;27;20070;-69
2023/04/08 10:48:12;;;;;;;19.10;11.05;;;11.40;99.90;;;;;;5107920;27;20482;-71
2023/04/08 10:50:37;;;;;;;24.70;16.50;;;11.50;99.90;;;;;;5090450;27;20443;-70
2023/04/08 10:53:04;;;;;;;25.80;16.83;;;11.30;99.90;;;;;;5100715;27;20039;-68
2023/04/08 10:55:30;;;;;;;22.88;15.40;;;11.30;99.90;;;;;;5105863;28;20429;-65
2023/04/08 10:58:07;;;;;;;26.00;17.05;;;11.40;99.90;;;;;;5105465;28;20139;-66
2023/04/08 11:00:38;;;;;;;23.70;15.90;;;11.60;99.90;;;;;;5106901;27;20039;-66
2023/04/08 11:03:06;;;;;;;23.05;15.07;;;11.70;99.90;;;;;;5115276;27;20487;-69
2023/04/08 11:05:33;;;;;;;24.08;16.52;;;12.00;99.90;;;;;;5106359;27;20042;-65
2023/04/08 11:08:00;;;;;;;21.55;15.73;;;12.20;99.90;;;;;;5110035;27;20062;-68
2023/04/08 11:10:27;;;;;;;26.83;16.67;;;12.20;99.90;;;;;;5104365;27;20036;-66
2023/04/08 11:12:54;;;;;;;23.65;16.75;;;12.30;99.90;;;;;;5102613;27;20095;-66
2023/04/08 11:15:21;;;;;;;23.77;16.92;;;12.30;99.90;;;;;;5132995;27;20507;-66
2023/04/08 11:17:47;;;;;;;23.13;15.68;;;12.30;99.90;;;;;;5106980;27;20049;-65
2023/04/08 11:20:13;;;;;;;21.27;14.23;;;12.20;99.90;;;;;;5107120;27;20043;-73
2023/04/08 11:22:39;;;;;;;23.20;14.38;;;12.20;99.90;;;;;;5105746;27;20338;-70
2023/04/08 11:25:07;;;;;;;26.17;16.85;;;12.10;99.90;;;;;;5108513;27;20122;-66
2023/04/08 11:27:34;;;;;;;26.38;17.48;;;12.00;99.90;;;;;;5112538;27;20114;-69
2023/04/08 11:30:01;;;;;;;25.60;17.70;;;12.10;99.90;;;;;;5108511;27;20063;-66
2023/04/08 11:32:29;;;;;;;24.05;15.88;;;12.30;99.90;;;;;;5112919;27;20039;-66
2023/04/08 11:34:54;;;;;;;23.63;16.17;;;12.40;99.90;;;;;;5114723;27;20046;-66
2023/04/08 11:37:21;;;;;;;22.80;15.70;;;12.30;99.90;;;;;;5115428;27;20043;-66
2023/04/08 11:39:46;;;;;;;24.50;16.48;;;12.20;99.90;;;;;;5109717;27;20040;-67
2023/04/08 11:42:32;;;;;;;23.35;15.27;;;12.40;99.90;;;;;;5114204;27;20031;-68
2023/04/08 11:44:58;;;;;;;21.13;14.18;;;12.50;99.90;;;;;;5113292;27;20041;-70
2023/04/08 11:47:32;;;;;;;23.50;16.08;;;12.60;99.90;;;;;;5105916;27;20043;-71
2023/04/08 11:49:57;;;;;;;22.13;16.17;;;12.70;99.90;;;;;;5113818;27;20082;-70
2023/04/08 11:52:58;;;;;;;20.90;14.48;;;12.80;99.90;;;;;;5111302;28;20501;-73
2023/04/08 11:55:25;;;;;;;21.90;15.38;;;13.00;99.90;;;;;;5106335;28;20042;-69
2023/04/08 11:58:36;;;;;;;21.73;15.38;;;12.90;99.90;;;;;;5122030;27;20473;-69
2023/04/08 12:01:01;;;;;;;20.02;14.95;;;13.00;99.90;;;;;;5113751;28;20110;-69
2023/04/08 12:03:27;;;;;;;20.80;14.23;;;13.00;99.90;;;;;;5104640;28;20460;-70
2023/04/08 12:05:53;;;;;;;20.77;15.25;;;12.90;99.90;;;;;;5111688;27;20067;-69
2023/04/08 12:08:19;;;;;;;21.10;14.95;;;12.90;99.90;;;;;;5118167;27;20039;-68
2023/04/08 12:10:44;;;;;;;19.50;14.65;;;13.00;99.90;;;;;;5119620;27;20533;-68
2023/04/08 12:13:10;;;;;;;19.33;13.82;;;13.00;99.90;;;;;;5110274;27;20051;-68
2023/04/08 12:15:35;;;;;;;21.88;14.90;;;13.10;99.90;;;;;;5115177;27;20046;-68
2023/04/08 12:18:01;;;;;;;22.15;15.50;;;13.10;99.90;;;;;;5113585;27;20088;-67
2023/04/08 12:20:26;;;;;;;19.50;14.68;;;13.10;99.90;;;;;;5106465;28;20062;-69
2023/04/08 12:22:52;;;;;;;20.13;14.18;;;13.00;99.90;;;;;;5115448;27;20046;-69
2023/04/08 12:25:17;;;;;;;19.70;14.52;;;13.00;99.90;;;;;;5130933;27;20035;-67
2023/04/08 12:27:43;;;;;;;18.63;14.10;;;13.20;99.90;;;;;;5111125;27;20030;-65
2023/04/08 12:30:09;;;;;;;18.10;13.50;;;13.30;99.90;;;;;;5126601;27;20044;-67
2023/04/08 12:32:34;;;;;;;16.85;11.43;;;13.40;99.90;;;;;;5107144;27;20059;-67
2023/04/08 12:35:17;;;;;;;17.35;13.18;;;13.40;99.90;;;;;;5112157;27;20067;-66
2023/04/08 12:37:43;;;;;;;17.70;13.40;;;13.30;99.90;;;;;;5108439;27;20095;-65
2023/04/08 12:40:10;;;;;;;15.85;11.98;;;13.30;99.90;;;;;;5116462;27;20423;-66
2023/04/08 12:42:36;;;;;;;16.77;12.95;;;13.20;99.90;;;;;;5117595;27;20194;-63
2023/04/08 12:45:02;;;;;;;18.08;12.50;;;13.30;99.90;;;;;;5099911;27;20437;-63